Time;durP1;ratioP1;P1;durP2;ratioP2;P2;SDS_P1;SDS_P2;PMS_P1;PMS_P2;Temp;Humidity;BMP_temperature;BMP_pressure;BME280_temperature;BME280_humidity;BME280_pressure;Samples;Min_cycle;Max_cycle;Signal;HPM_P1;HPM_P2
2022/09/01 00:01:20;;;;;;;22.00;11.63;;;;;;;18.48;87.10;94666.91;5135017;27;20218;-76
2022/09/01 00:03:47;;;;;;;19.90;10.98;;;;;;;18.42;86.56;94657.28;5134834;27;20558;-76
2022/09/01 00:06:21;;;;;;;16.33;10.65;;;;;;;18.33;87.02;94658.09;5135074;27;20169;-76
2022/09/01 00:08:56;;;;;;;16.55;12.20;;;;;;;18.27;87.50;94664.44;5134861;27;20699;-76
2022/09/01 00:11:24;;;;;;;23.20;13.93;;;;;;;18.24;87.49;94649.81;5134928;27;20180;-76
2022/09/01 00:13:51;;;;;;;22.27;14.30;;;;;;;18.28;87.87;94650.88;5126197;27;20211;-76
2022/09/01 00:16:18;;;;;;;17.15;11.63;;;;;;;18.30;87.57;94658.59;5134346;27;20208;-76
2022/09/01 00:18:48;;;;;;;16.48;11.52;;;;;;;18.28;87.58;94652.72;5119705;27;20181;-76
2022/09/01 00:21:13;;;;;;;18.75;11.13;;;;;;;18.24;87.63;94647.13;5113856;28;20181;-76
2022/09/01 00:23:39;;;;;;;19.83;11.20;;;;;;;18.08;88.16;94635.63;5127822;27;20179;-76
2022/09/01 00:26:05;;;;;;;20.35;12.38;;;;;;;18.22;88.36;94661.78;5134604;27;20185;-76
2022/09/01 00:28:35;;;;;;;25.08;12.75;;;;;;;18.04;88.00;94618.56;5134650;27;20202;-76
2022/09/01 00:31:01;;;;;;;16.65;11.88;;;;;;;18.20;87.67;94659.38;5134525;27;20176;-76
2022/09/01 00:33:26;;;;;;;16.13;12.23;;;;;;;18.14;88.08;94657.75;5134545;27;20650;-76
2022/09/01 00:35:52;;;;;;;22.30;11.90;;;;;;;17.94;88.37;94636.38;5115997;27;20180;-76
2022/09/01 00:38:18;;;;;;;19.13;10.65;;;;;;;18.04;88.55;94663.06;5134219;27;20255;-76
2022/09/01 00:40:43;;;;;;;15.43;10.77;;;;;;;18.05;88.82;94659.34;5125728;27;20180;-76
2022/09/01 00:43:16;;;;;;;18.27;11.27;;;;;;;18.07;88.65;94665.22;5134155;27;20202;-76
2022/09/01 00:45:41;;;;;;;20.92;11.30;;;;;;;18.07;88.83;94662.53;5134183;27;20181;-76
2022/09/01 00:48:08;;;;;;;19.52;11.25;;;;;;;18.07;88.54;94659.88;5119599;27;20634;-76
2022/09/01 00:50:35;;;;;;;17.25;10.88;;;;;;;17.99;89.02;94663.81;5113405;28;20256;-76
2022/09/01 00:53:01;;;;;;;18.58;11.18;;;;;;;17.86;89.63;94663.53;5118101;27;20172;-76
2022/09/01 00:55:31;;;;;;;15.63;9.90;;;;;;;17.88;89.70;94670.19;5134003;27;20176;-76
2022/09/01 00:57:59;;;;;;;15.07;10.20;;;;;;;17.91;89.56;94667.00;5121931;27;20257;-75
2022/09/01 01:00:29;;;;;;;23.10;10.10;;;;;;;17.73;89.52;94654.13;5101830;27;20591;-76
2022/09/01 01:02:55;;;;;;;15.95;10.65;;;;;;;17.73;89.50;94656.03;5131822;27;20267;-75
2022/09/01 01:05:29;;;;;;;14.77;10.88;;;;;;;17.89;89.36;94681.66;5112467;28;20251;-75
2022/09/01 01:07:56;;;;;;;16.50;11.35;;;;;;;17.83;89.29;94669.34;5112688;28;20241;-75
2022/09/01 01:10:25;;;;;;;18.52;10.35;;;;;;;17.82;88.92;94665.09;5094704;28;20173;-75
2022/09/01 01:12:51;;;;;;;13.65;9.10;;;;;;;17.91;88.93;94682.97;5112831;28;20173;-75
2022/09/01 01:15:18;;;;;;;18.00;10.75;;;;;;;17.93;88.96;94680.06;5112762;28;20180;-76
2022/09/01 01:17:43;;;;;;;16.40;10.50;;;;;;;17.80;89.08;94645.94;5112728;28;20261;-75
2022/09/01 01:23:07;;;;;;;19.08;11.05;;;;;;;17.93;88.67;94664.88;5133343;27;20566;-75
2022/09/01 01:25:43;;;;;;;20.70;11.02;;;;;;;17.85;88.67;94660.06;5133299;27;20171;-75
2022/09/01 01:28:12;;;;;;;20.50;11.68;;;;;;;17.77;89.34;94668.53;5114843;27;20207;-75
2022/09/01 01:30:40;;;;;;;20.33;11.20;;;;;;;17.70;89.87;94668.00;5112946;28;20187;-76
2022/09/01 01:33:06;;;;;;;20.55;10.45;;;;;;;17.70;89.95;94670.66;5129688;27;20203;-76
2022/09/01 01:35:33;;;;;;;17.67;11.13;;;;;;;17.61;89.83;94649.00;5124608;27;20180;-75
2022/09/01 01:38:00;;;;;;;18.73;10.93;;;;;;;17.73;89.91;94665.59;5126644;27;20189;-75
2022/09/01 01:40:28;;;;;;;15.07;10.40;;;;;;;17.78;89.39;94672.81;5112689;28;20215;-75
2022/09/01 01:42:54;;;;;;;18.08;10.35;;;;;;;17.60;89.03;94638.63;5112400;28;20213;-75
2022/09/01 01:45:22;;;;;;;20.60;10.80;;;;;;;17.77;88.98;94684.53;5112714;28;21014;-75
2022/09/01 01:47:52;;;;;;;14.68;10.07;;;;;;;17.61;88.45;94659.66;5124689;27;20201;-76
2022/09/01 01:50:19;;;;;;;16.55;11.05;;;;;;;17.75;88.74;94685.84;5132725;27;20176;-76
2022/09/01 01:52:44;;;;;;;15.80;10.20;;;;;;;17.74;88.93;94693.03;5112826;27;20199;-76
2022/09/01 01:55:11;;;;;;;14.27;10.20;;;;;;;17.70;89.13;94691.94;5118054;27;20178;-76
2022/09/01 01:57:38;;;;;;;15.32;10.65;;;;;;;17.73;88.59;94697.53;5123090;27;20177;-76
2022/09/01 02:00:05;;;;;;;15.13;10.57;;;;;;;17.67;88.50;94697.78;5124850;27;20232;-76
2022/09/01 02:02:30;;;;;;;17.52;10.00;;;;;;;17.63;89.08;94691.38;5132504;27;20176;-75
2022/09/01 02:04:55;;;;;;;18.20;11.02;;;;;;;17.61;89.13;94702.25;5112822;28;20187;-76
2022/09/01 02:07:21;;;;;;;15.10;11.30;;;;;;;17.59;89.04;94707.03;5111868;28;20242;-76
2022/09/01 02:09:47;;;;;;;13.57;9.73;;;;;;;17.57;88.81;94705.69;5112070;28;20641;-76
2022/09/01 02:12:13;;;;;;;15.25;10.57;;;;;;;17.33;89.10;94673.34;5121459;27;20176;-76
2022/09/01 02:14:38;;;;;;;18.55;11.00;;;;;;;17.37;89.73;94703.72;5132299;27;20210;-75
2022/09/01 02:17:06;;;;;;;15.57;10.57;;;;;;;17.38;90.05;94704.53;5126125;27;20220;-76
2022/09/01 02:19:32;;;;;;;13.25;9.98;;;;;;;17.38;90.24;94701.84;5111823;28;20194;-76
2022/09/01 02:21:59;;;;;;;19.83;11.10;;;;;;;17.39;90.18;94704.25;5111403;28;20645;-75
2022/09/01 02:24:25;;;;;;;17.73;10.02;;;;;;;17.41;90.15;94696.81;5111706;28;20181;-75
2022/09/01 02:26:50;;;;;;;12.75;9.65;;;;;;;17.25;89.78;94666.66;5111267;28;20214;-75
2022/09/01 02:29:23;;;;;;;15.00;10.75;;;;;;;17.46;89.32;94702.19;5123541;27;20172;-76
2022/09/01 02:31:51;;;;;;;18.40;9.85;;;;;;;17.42;88.82;94701.06;5132135;27;20173;-76
2022/09/01 02:34:18;;;;;;;19.23;10.30;;;;;;;17.37;89.17;94697.59;5132007;27;20662;-76
2022/09/01 02:36:47;;;;;;;12.45;8.93;;;;;;;17.30;89.50;94689.81;5131985;27;20187;-76
2022/09/01 02:39:22;;;;;;;21.45;10.43;;;;;;;17.29;89.68;94690.88;5132076;27;20191;-75
2022/09/01 02:41:48;;;;;;;15.70;10.23;;;;;;;17.30;89.76;94689.81;5131952;27;20168;-75
2022/09/01 02:44:14;;;;;;;15.48;9.30;;;;;;;17.30;89.67;94679.16;5124163;27;20706;-76
2022/09/01 02:46:42;;;;;;;13.32;9.18;;;;;;;17.31;89.59;94683.44;5122769;27;20196;-76
2022/09/01 02:49:14;;;;;;;17.48;10.25;;;;;;;17.27;89.29;94677.03;5131864;27;20312;-75
2022/09/01 02:51:44;;;;;;;22.42;10.30;;;;;;;17.27;89.20;94675.19;5112360;27;20238;-75
2022/09/01 02:54:15;;;;;;;17.50;9.95;;;;;;;17.13;89.41;94652.72;5111066;28;20181;-75
2022/09/01 02:56:41;;;;;;;13.48;10.65;;;;;;;17.27;89.63;94677.03;5111171;28;20169;-75
2022/09/01 02:59:11;;;;;;;14.27;9.75;;;;;;;17.29;89.17;94672.25;5111230;28;20193;-74
2022/09/01 03:01:36;;;;;;;14.10;10.45;;;;;;;17.25;88.98;94679.16;5123045;28;20176;-75
2022/09/01 03:04:04;;;;;;;18.40;9.90;;;;;;;17.22;89.33;94679.66;5131476;28;20174;-75
2022/09/01 03:06:32;;;;;;;16.30;10.20;;;;;;;17.20;89.36;94679.13;5131314;28;20625;-75
2022/09/01 03:08:59;;;;;;;20.88;11.13;;;;;;;17.26;89.21;94686.06;5131793;28;20912;-75
2022/09/01 03:11:26;;;;;;;14.50;9.30;;;;;;;17.26;88.99;94684.22;5131282;28;20259;-75
2022/09/01 03:13:52;;;;;;;13.90;10.25;;;;;;;17.26;88.77;94680.75;5131468;28;20177;-75
2022/09/01 03:16:18;;;;;;;17.58;10.32;;;;;;;17.23;88.59;94683.91;5131232;28;20277;-75
2022/09/01 03:18:44;;;;;;;22.30;10.63;;;;;;;16.88;88.44;94629.41;5120106;28;20184;-74
2022/09/01 03:21:15;;;;;;;29.25;15.68;;;;;;;17.06;88.91;94670.75;5114540;28;20188;-75
2022/09/01 03:23:44;;;;;;;22.45;13.32;;;;;;;17.08;89.32;94675.84;5110661;28;20181;-75
2022/09/01 03:26:10;;;;;;;19.80;13.05;;;;;;;16.95;89.27;94658.47;5129382;28;20211;-75
2022/09/01 03:28:39;;;;;;;22.92;12.82;;;;;;;17.06;89.60;94680.59;5133999;27;20210;-75
2022/09/01 03:31:05;;;;;;;17.27;11.63;;;;;;;16.81;89.70;94657.28;5134936;27;20176;-75
2022/09/01 03:33:31;;;;;;;18.20;12.18;;;;;;;16.79;89.88;94662.84;5128396;27;20192;-75
2022/09/01 03:35:57;;;;;;;23.48;11.70;;;;;;;16.84;90.20;94670.88;5121753;27;20176;-75
2022/09/01 03:38:24;;;;;;;18.45;11.23;;;;;;;16.88;89.70;94673.81;5121835;27;20237;-75
2022/09/01 03:40:57;;;;;;;21.63;12.80;;;;;;;17.01;89.56;94689.34;5118298;27;20177;-75
2022/09/01 03:43:25;;;;;;;25.58;11.88;;;;;;;17.04;89.61;94682.75;5119320;27;20173;-75
2022/09/01 03:45:54;;;;;;;19.88;12.95;;;;;;;17.05;89.20;94690.44;5123208;27;20183;-75
2022/09/01 03:48:20;;;;;;;17.00;11.57;;;;;;;16.79;88.85;94648.75;5098923;28;20247;-75
2022/09/01 03:50:46;;;;;;;23.98;12.52;;;;;;;16.98;89.22;94690.66;5125009;27;20537;-75
2022/09/01 03:53:21;;;;;;;19.92;13.30;;;;;;;16.95;89.58;94688.50;5118424;27;20234;-75
2022/09/01 03:55:48;;;;;;;23.27;14.43;;;;;;;16.90;89.80;94682.34;5108490;27;20279;-75
2022/09/01 03:58:17;;;;;;;20.17;13.15;;;;;;;16.51;90.00;94632.03;5115334;27;20544;-75
2022/09/01 04:00:46;;;;;;;20.02;12.23;;;;;;;16.88;90.06;94690.56;5115821;27;20690;-75
2022/09/01 04:03:12;;;;;;;16.98;11.57;;;;;;;16.87;90.38;94686.31;5118290;27;20184;-75
2022/09/01 04:05:42;;;;;;;17.52;11.48;;;;;;;16.82;89.64;94678.31;5133895;27;20681;-75
2022/09/01 04:08:11;;;;;;;17.52;10.50;;;;;;;16.90;89.84;94693.78;5118367;27;20247;-75
2022/09/01 04:10:48;;;;;;;18.83;11.73;;;;;;;16.83;89.79;94693.19;5129824;27;20250;-75
2022/09/01 04:13:26;;;;;;;17.92;11.80;;;;;;;16.82;90.42;94696.09;5127418;27;20233;-75
2022/09/01 04:15:52;;;;;;;28.25;18.33;;;;;;;16.82;90.70;94691.59;5125160;27;20224;-74
2022/09/01 04:18:19;;;;;;;21.38;11.73;;;;;;;16.83;90.85;94692.41;5113943;28;20181;-74
2022/09/01 04:20:48;;;;;;;20.48;12.68;;;;;;;16.58;91.17;94659.19;5113972;28;20276;-74
2022/09/01 04:23:28;;;;;;;17.15;12.57;;;;;;;16.81;91.23;94681.22;5114246;28;20179;-75
2022/09/01 04:26:07;;;;;;;24.08;15.55;;;;;;;16.87;91.35;94688.16;5113820;28;20179;-74
2022/09/01 04:28:36;;;;;;;23.38;15.32;;;;;;;16.83;91.37;94676.44;5115313;27;20227;-75
2022/09/01 04:31:07;;;;;;;21.45;12.13;;;;;;;16.98;90.88;94685.34;5114219;27;20197;-75
2022/09/01 04:33:37;;;;;;;26.95;16.83;;;;;;;17.04;91.07;94688.06;5121874;27;20192;-75
2022/09/01 04:36:21;;;;;;;17.38;12.45;;;;;;;17.13;91.55;94686.50;5114131;27;20280;-75
2022/09/01 04:38:49;;;;;;;23.67;13.43;;;;;;;17.24;91.20;94688.19;5113276;27;20261;-75
2022/09/01 04:41:16;;;;;;;19.48;13.32;;;;;;;17.25;90.71;94669.31;5109106;28;20281;-75
2022/09/01 04:43:46;;;;;;;25.67;17.02;;;;;;;17.33;90.27;94681.31;5112313;27;20188;-75
2022/09/01 04:46:15;;;;;;;23.30;13.13;;;;;;;17.39;90.05;94692.78;5112732;28;20205;-75
2022/09/01 04:48:43;;;;;;;18.20;12.35;;;;;;;17.39;90.70;94685.59;5112764;28;20177;-75
2022/09/01 04:51:11;;;;;;;32.80;12.40;;;;;;;17.38;90.58;94669.91;5112184;28;20176;-75
2022/09/01 04:53:37;;;;;;;21.77;13.65;;;;;;;17.48;90.00;94692.06;5111132;28;20177;-75
2022/09/01 04:56:05;;;;;;;21.77;13.85;;;;;;;17.55;90.17;94684.66;5112015;28;20223;-75
2022/09/01 04:58:31;;;;;;;19.30;13.07;;;;;;;17.88;89.57;94686.19;5114853;27;20165;-75
2022/09/01 05:00:59;;;;;;;26.27;15.48;;;;;;;18.22;88.18;94683.91;5111943;28;20189;-75
2022/09/01 05:03:25;;;;;;;21.10;13.93;;;;;;;18.61;86.75;94686.94;5111786;28;20185;-75
2022/09/01 05:05:52;;;;;;;21.60;14.43;;;;;;;19.12;84.74;94686.94;5112511;28;20177;-75
2022/09/01 05:08:21;;;;;;;25.50;15.95;;;;;;;19.75;82.00;94674.06;5112570;28;20201;-75
2022/09/01 05:10:51;;;;;;;25.80;13.60;;;;;;;20.48;79.08;94693.03;5113027;28;20191;-74
2022/09/01 05:13:17;;;;;;;19.67;13.73;;;;;;;21.17;77.32;94692.00;5112543;28;20716;-74
2022/09/01 05:15:46;;;;;;;28.65;17.10;;;;;;;21.94;73.64;94693.66;5113398;27;20225;-74
2022/09/01 05:18:22;;;;;;;21.40;13.88;;;;;;;22.96;70.00;94690.47;5092225;28;20181;-74
2022/09/01 05:20:48;;;;;;;17.85;12.35;;;;;;;23.79;66.36;94699.56;5101753;28;20177;-74
2022/09/01 05:23:18;;;;;;;21.33;11.77;;;;;;;24.46;64.15;94679.19;5098869;28;20189;-74
2022/09/01 05:25:47;;;;;;;32.50;20.80;;;;;;;25.39;61.70;94703.72;5102625;28;20187;-75
2022/09/01 05:28:12;;;;;;;21.42;13.23;;;;;;;26.03;59.02;94690.75;5094731;28;20317;-74
2022/09/01 05:30:40;;;;;;;24.08;13.20;;;;;;;26.62;57.14;94700.97;5109257;28;20284;-75
2022/09/01 05:33:11;;;;;;;22.98;15.52;;;;;;;26.88;56.15;94700.19;5112467;28;20640;-75
2022/09/01 05:35:42;;;;;;;26.17;16.92;;;;;;;27.04;55.74;94701.34;5112244;28;20265;-74
2022/09/01 05:38:11;;;;;;;22.70;12.27;;;;;;;27.02;55.81;94701.66;5112020;28;20172;-75
2022/09/01 05:40:42;;;;;;;14.00;8.95;;;;;;;27.00;55.75;94674.16;5112421;28;20702;-74
2022/09/01 05:43:11;;;;;;;12.73;10.45;;;;;;;27.27;55.89;94707.38;5092616;28;20182;-74
2022/09/01 05:45:39;;;;;;;16.88;10.93;;;;;;;27.52;55.13;94692.22;5110671;28;20196;-74
2022/09/01 05:48:05;;;;;;;14.25;8.05;;;;;;;27.74;54.69;94700.16;5094725;28;20218;-74
2022/09/01 05:50:30;;;;;;;13.93;10.20;;;;;;;28.10;53.13;94697.81;5091632;28;20181;-74
2022/09/01 05:52:55;;;;;;;12.23;9.07;;;;;;;27.72;53.43;94703.19;5091530;28;20544;-74
2022/09/01 05:55:21;;;;;;;25.33;16.10;;;;;;;26.98;55.21;94697.97;5091484;28;20547;-74
2022/09/01 05:57:49;;;;;;;14.63;11.20;;;;;;;26.29;57.38;94697.84;5091609;28;20664;-74
2022/09/01 06:00:16;;;;;;;14.25;9.65;;;;;;;26.22;59.05;94699.38;5091493;28;20656;-74
2022/09/01 06:02:42;;;;;;;17.52;12.02;;;;;;;26.43;57.68;94684.25;5091523;28;20176;-74
2022/09/01 06:05:09;;;;;;;17.85;12.45;;;;;;;26.45;57.13;94692.84;5091300;28;20182;-74
2022/09/01 06:07:39;;;;;;;17.30;10.43;;;;;;;25.76;58.90;94687.16;5073118;28;20209;-74
2022/09/01 06:10:05;;;;;;;18.08;12.63;;;;;;;24.91;61.31;94658.50;5091260;28;20254;-74
2022/09/01 06:12:32;;;;;;;19.27;11.80;;;;;;;24.61;63.11;94670.75;5098109;28;20184;-74
2022/09/01 06:14:58;;;;;;;19.77;12.75;;;;;;;24.77;62.89;94677.41;5097767;28;20169;-73
2022/09/01 06:17:27;;;;;;;26.80;18.35;;;;;;;24.85;62.96;94675.88;5111832;27;20227;-74
2022/09/01 06:19:55;;;;;;;22.70;13.02;;;;;;;24.91;62.15;94647.75;5125129;27;20555;-74
2022/09/01 06:22:22;;;;;;;20.08;13.80;;;;;;;25.04;61.83;94646.09;5111937;28;20680;-75
2022/09/01 06:24:50;;;;;;;23.50;14.57;;;;;;;25.85;60.46;94673.72;5111705;28;20181;-77
2022/09/01 06:27:19;;;;;;;19.88;14.63;;;;;;;26.68;58.36;94680.00;5093787;28;20197;-78
2022/09/01 06:29:48;;;;;;;20.15;14.20;;;;;;;27.47;56.63;94681.56;5121086;27;20177;-77
2022/09/01 06:32:13;;;;;;;21.27;14.15;;;;;;;27.74;55.55;94673.13;5093264;28;20675;-76
2022/09/01 06:34:43;;;;;;;18.33;14.13;;;;;;;28.03;55.17;94677.75;5111633;28;20208;-75
2022/09/01 06:37:12;;;;;;;22.60;15.18;;;;;;;28.22;54.49;94675.47;5111313;28;20264;-75
2022/09/01 06:39:37;;;;;;;22.58;14.68;;;;;;;28.35;53.78;94676.38;5111171;28;20177;-75
2022/09/01 06:42:03;;;;;;;20.98;14.93;;;;;;;27.94;53.50;94671.59;5111287;28;20172;-75
2022/09/01 06:44:30;;;;;;;19.40;14.60;;;;;;;27.73;55.07;94679.63;5111156;28;20226;-75
2022/09/01 06:46:58;;;;;;;21.70;15.10;;;;;;;27.82;54.52;94657.97;5111190;28;20245;-75
2022/09/01 06:49:31;;;;;;;20.58;14.65;;;;;;;27.92;55.43;94671.13;5110414;28;20256;-75
2022/09/01 06:52:01;;;;;;;28.83;14.85;;;;;;;27.89;53.84;94675.28;5122207;27;20168;-75
2022/09/01 06:54:30;;;;;;;22.77;15.55;;;;;;;28.10;54.96;94673.47;5130829;27;20255;-75
2022/09/01 06:56:56;;;;;;;23.10;14.30;;;;;;;28.21;54.37;94660.34;5130245;27;20172;-75
2022/09/01 06:59:22;;;;;;;22.88;15.15;;;;;;;28.35;55.12;94668.25;5130646;28;20172;-75
2022/09/01 07:01:50;;;;;;;23.27;15.07;;;;;;;28.49;54.00;94680.44;5129984;27;20631;-75
2022/09/01 07:04:18;;;;;;;23.27;15.80;;;;;;;28.21;53.44;94652.22;5131177;28;20173;-75
2022/09/01 07:06:49;;;;;;;24.23;15.75;;;;;;;28.01;54.74;94683.53;5131300;28;20192;-75
2022/09/01 07:09:15;;;;;;;21.30;15.73;;;;;;;27.88;54.63;94684.50;5118884;28;20295;-75
2022/09/01 07:11:40;;;;;;;26.92;17.33;;;;;;;27.72;54.89;94676.13;5110783;28;20244;-75
2022/09/01 07:14:06;;;;;;;22.85;15.57;;;;;;;27.68;56.67;94675.19;5110747;28;20173;-75
2022/09/01 07:16:39;;;;;;;29.50;16.35;;;;;;;27.81;55.25;94669.91;5092641;28;20683;-75
2022/09/01 07:19:07;;;;;;;29.70;16.42;;;;;;;27.82;55.54;94674.19;5110701;28;20662;-75
2022/09/01 07:21:33;;;;;;;23.67;17.25;;;;;;;27.42;54.96;94680.63;5110768;28;20327;-75
2022/09/01 07:24:03;;;;;;;37.63;17.80;;;;;;;27.04;57.28;94680.53;5110848;28;20260;-75
2022/09/01 07:26:29;;;;;;;24.25;16.92;;;;;;;27.37;58.74;94675.38;5110721;28;20241;-75
2022/09/01 07:28:55;;;;;;;25.98;16.98;;;;;;;27.48;56.30;94675.06;5092568;28;20172;-75
2022/09/01 07:31:25;;;;;;;23.77;16.13;;;;;;;27.70;56.60;94669.44;5110626;28;20176;-75
2022/09/01 07:33:53;;;;;;;29.80;17.10;;;;;;;27.94;54.69;94677.00;5110729;28;20170;-75
2022/09/01 07:36:19;;;;;;;31.35;16.23;;;;;;;27.90;55.14;94674.16;5113172;28;20230;-74
2022/09/01 07:38:50;;;;;;;24.48;17.15;;;;;;;27.86;54.86;94675.91;5117375;28;20697;-74
2022/09/01 07:41:16;;;;;;;31.92;17.85;;;;;;;27.61;54.25;94674.09;5122892;28;20665;-74
2022/09/01 07:43:43;;;;;;;25.63;15.88;;;;;;;27.47;56.42;94673.47;5119402;28;20169;-74
2022/09/01 07:46:10;;;;;;;29.00;17.55;;;;;;;27.55;54.71;94669.97;5119840;28;20658;-74
2022/09/01 07:48:37;;;;;;;24.75;17.15;;;;;;;27.30;55.31;94669.69;5113988;28;20286;-75
2022/09/01 07:51:03;;;;;;;28.63;16.92;;;;;;;26.88;56.46;94675.88;5110575;28;20176;-75
2022/09/01 07:53:32;;;;;;;20.83;15.20;;;;;;;26.52;58.48;94668.06;5127132;28;20172;-75
2022/09/01 07:56:06;;;;;;;22.65;14.50;;;;;;;26.71;58.89;94673.97;5125597;28;20181;-74
2022/09/01 07:58:32;;;;;;;29.48;14.48;;;;;;;26.89;58.04;94680.97;5118857;28;20631;-76
2022/09/01 08:01:01;;;;;;;23.05;14.73;;;;;;;27.16;58.11;94671.75;5124886;28;20212;-76
2022/09/01 08:03:28;;;;;;;23.23;14.70;;;;;;;27.57;56.80;94673.16;5109849;28;20180;-75
2022/09/01 08:05:58;;;;;;;22.15;14.32;;;;;;;28.00;56.33;94673.81;5112598;28;20628;-75
2022/09/01 08:08:24;;;;;;;25.67;15.07;;;;;;;28.30;55.02;94673.84;5109608;28;20685;-75
2022/09/01 08:10:49;;;;;;;22.85;16.25;;;;;;;27.68;54.41;94672.47;5118322;28;20176;-75
2022/09/01 08:13:16;;;;;;;23.23;15.35;;;;;;;27.29;55.87;94670.00;5114960;28;20181;-75
2022/09/01 08:15:42;;;;;;;23.77;14.75;;;;;;;27.04;56.76;94671.63;5114924;28;20221;-75
2022/09/01 08:18:08;;;;;;;28.77;15.90;;;;;;;27.26;56.31;94657.91;5117015;27;20203;-76
2022/09/01 08:20:38;;;;;;;21.25;14.98;;;;;;;27.52;56.17;94662.47;5118706;27;20185;-76
2022/09/01 08:23:07;;;;;;;21.02;14.75;;;;;;;27.80;57.57;94666.41;5125064;27;20648;-75
2022/09/01 08:25:35;;;;;;;21.45;13.90;;;;;;;28.32;55.79;94661.56;5120351;27;20189;-76
2022/09/01 08:28:01;;;;;;;17.10;13.35;;;;;;;28.53;54.14;94667.03;5128617;27;20200;-75
2022/09/01 08:30:28;;;;;;;23.42;14.07;;;;;;;28.72;54.03;94656.53;5120166;27;20181;-75
2022/09/01 08:32:54;;;;;;;25.27;14.15;;;;;;;28.57;52.61;94643.56;5122726;27;20218;-75
2022/09/01 08:35:20;;;;;;;22.35;13.63;;;;;;;28.78;53.78;94652.53;5113239;28;20177;-75
2022/09/01 08:37:45;;;;;;;22.75;13.55;;;;;;;28.57;54.60;94650.91;5112854;28;20658;-75
2022/09/01 08:40:15;;;;;;;24.00;14.27;;;;;;;28.80;53.43;94655.69;5113222;28;20169;-75
2022/09/01 08:43:15;;;;;;;17.10;12.55;;;;;;;29.17;53.18;94651.25;5131877;27;20682;-75
2022/09/01 08:45:52;;;;;;;17.20;10.88;;;;;;;29.58;51.74;94649.59;5122812;27;20183;-75
2022/09/01 08:48:38;;;;;;;18.63;11.88;;;;;;;29.52;49.86;94642.78;5133305;27;20626;-74
2022/09/01 08:51:29;;;;;;;20.58;12.10;;;;;;;28.57;50.99;94638.16;5133105;27;20241;-75
2022/09/01 08:54:03;;;;;;;16.25;11.02;;;;;;;28.24;52.62;94637.25;5093693;27;20184;-75
2022/09/01 08:56:30;;;;;;;17.95;11.55;;;;;;;28.39;52.34;94628.53;5133306;27;20171;-76
2022/09/01 08:58:57;;;;;;;17.90;10.48;;;;;;;28.41;51.64;94634.44;5134064;27;20539;-77
2022/09/01 09:02:01;;;;;;;19.00;10.70;;;;;;;28.42;53.14;94625.19;5126118;27;20161;-78
2022/09/01 09:05:08;;;;;;;17.25;10.75;;;;;;;28.63;51.09;94617.84;5074117;27;20267;-77
2022/09/01 09:07:55;;;;;;;18.42;11.05;;;;;;;28.47;51.92;94616.84;5068093;28;20212;-77
2022/09/01 09:10:25;;;;;;;13.70;10.68;;;;;;;28.66;52.83;94613.69;5126507;27;20558;-78
2022/09/01 09:13:01;;;;;;;16.45;11.38;;;;;;;28.91;52.08;94620.84;5116861;27;20247;-77
2022/09/01 09:15:36;;;;;;;21.40;12.10;;;;;;;28.39;52.62;94613.09;5114359;27;20698;-78
2022/09/01 09:18:17;;;;;;;15.05;9.32;;;;;;;28.25;51.82;94609.84;5130198;27;20225;-77
2022/09/01 09:20:44;;;;;;;11.63;8.35;;;;;;;28.40;51.23;94609.25;5113442;27;20204;-77
2022/09/01 09:23:23;;;;;;;11.18;8.73;;;;;;;28.56;50.58;94614.88;5116146;27;20193;-77
2022/09/01 09:25:49;;;;;;;15.88;9.95;;;;;;;28.36;50.78;94608.34;5123502;27;20164;-77
2022/09/01 09:28:15;;;;;;;10.93;9.57;;;;;;;28.13;52.09;94602.38;5133215;27;20218;-76
2022/09/01 09:30:41;;;;;;;15.10;10.52;;;;;;;28.11;52.46;94612.75;5130460;27;20708;-77
2022/09/01 09:33:09;;;;;;;13.00;10.13;;;;;;;28.05;50.82;94608.66;5125518;27;20240;-77
2022/09/01 09:35:45;;;;;;;12.13;8.55;;;;;;;28.02;53.73;94597.69;5123159;27;20644;-78
2022/09/01 09:38:22;;;;;;;14.27;9.07;;;;;;;28.08;52.83;94591.75;5113275;28;20207;-77
2022/09/01 09:41:15;;;;;;;13.30;8.68;;;;;;;28.27;54.96;94577.03;5122117;27;20617;-77
2022/09/01 09:43:58;;;;;;;11.63;7.55;;;;;;;28.52;49.08;94586.88;5120810;27;20184;-76
2022/09/01 09:46:34;;;;;;;14.68;8.20;;;;;;;28.44;49.74;94595.88;5120075;27;20169;-75
2022/09/01 09:49:15;;;;;;;12.10;7.70;;;;;;;28.21;49.61;94589.16;5114458;27;20177;-76
2022/09/01 09:51:47;;;;;;;13.50;8.98;;;;;;;27.79;50.78;94568.19;5111157;28;20183;-75
2022/09/01 09:54:24;;;;;;;11.68;8.50;;;;;;;27.76;52.62;94587.00;5119500;27;20173;-77
2022/09/01 09:57:08;;;;;;;11.45;8.25;;;;;;;27.89;50.81;94588.69;5100370;27;20656;-78
2022/09/01 09:59:53;;;;;;;14.45;7.97;;;;;;;27.87;49.27;94579.28;5124240;27;20255;-78
2022/09/01 10:02:39;;;;;;;12.70;7.28;;;;;;;27.64;51.71;94549.81;5118737;27;20164;-78
2022/09/01 10:05:41;;;;;;;12.98;7.43;;;;;;;28.05;50.72;94578.06;5115518;27;20233;-75
2022/09/01 10:08:36;;;;;;;13.40;7.97;;;;;;;28.22;51.56;94574.50;5040742;28;20677;-75
2022/09/01 10:11:03;;;;;;;13.05;7.43;;;;;;;28.49;50.75;94568.56;5118989;27;20708;-75
2022/09/01 10:13:31;;;;;;;16.67;8.73;;;;;;;28.58;50.77;94577.41;5117945;27;20177;-75
2022/09/01 10:16:00;;;;;;;16.58;8.65;;;;;;;28.65;50.40;94572.25;5112865;28;20289;-75
2022/09/01 10:18:31;;;;;;;15.18;8.15;;;;;;;28.57;48.59;94566.91;5112755;28;20161;-75
2022/09/01 10:21:08;;;;;;;11.50;6.82;;;;;;;28.16;46.84;94573.91;5111567;28;20639;-75
2022/09/01 10:23:36;;;;;;;17.45;8.68;;;;;;;27.65;49.21;94567.63;5111563;28;20717;-76
2022/09/01 10:26:18;;;;;;;16.27;8.23;;;;;;;27.30;50.96;94555.31;5111711;28;20165;-75
2022/09/01 10:29:00;;;;;;;15.20;8.23;;;;;;;27.20;50.40;94540.25;5111636;28;20189;-75
2022/09/01 10:31:26;;;;;;;18.88;8.80;;;;;;;27.37;49.99;94550.19;5112196;27;20575;-75
2022/09/01 10:33:52;;;;;;;16.17;8.32;;;;;;;27.39;50.27;94551.47;5131816;27;20176;-75
2022/09/01 10:36:18;;;;;;;12.48;7.65;;;;;;;27.57;50.66;94559.56;5118325;27;20606;-76
2022/09/01 10:38:44;;;;;;;14.10;9.13;;;;;;;27.21;50.40;94527.53;5128055;27;20152;-75
2022/09/01 10:41:44;;;;;;;13.77;8.38;;;;;;;27.28;51.00;94549.44;5131951;27;20233;-75
2022/09/01 10:44:18;;;;;;;14.05;7.78;;;;;;;27.31;51.64;94536.06;5131440;27;20263;-75
2022/09/01 10:46:44;;;;;;;14.00;8.45;;;;;;;27.57;50.31;94543.31;5131344;27;20241;-75
2022/09/01 10:49:41;;;;;;;17.63;8.32;;;;;;;27.42;49.75;94545.41;5131734;27;20180;-75
2022/09/01 10:52:06;;;;;;;14.43;7.63;;;;;;;27.46;50.33;94526.63;5113751;27;20225;-75
2022/09/01 10:54:38;;;;;;;11.43;7.53;;;;;;;27.68;48.39;94544.53;5118708;27;20192;-75
2022/09/01 10:57:38;;;;;;;13.90;8.00;;;;;;;27.68;48.56;94541.81;5110976;28;20169;-75
2022/09/01 11:00:19;;;;;;;11.23;7.65;;;;;;;27.70;48.37;94536.88;5111190;28;20911;-74
2022/09/01 11:03:12;;;;;;;16.38;8.43;;;;;;;27.73;48.62;94533.53;5110844;28;20218;-75
2022/09/01 11:06:07;;;;;;;11.93;6.43;;;;;;;27.53;47.90;94521.50;5110856;28;20173;-74
2022/09/01 11:08:32;;;;;;;10.75;7.03;;;;;;;27.58;47.14;94534.09;5110883;28;20280;-75
2022/09/01 11:11:20;;;;;;;11.02;7.32;;;;;;;27.53;49.25;94507.97;5111129;28;20248;-75
2022/09/01 11:13:54;;;;;;;16.15;7.82;;;;;;;27.48;48.29;94529.00;5107313;28;20172;-75
2022/09/01 11:16:38;;;;;;;15.45;7.07;;;;;;;27.34;49.34;94524.59;5131001;28;20224;-75
2022/09/01 11:19:20;;;;;;;11.63;8.32;;;;;;;27.49;50.30;94515.16;5128453;28;20160;-75
2022/09/01 11:21:47;;;;;;;12.50;8.32;;;;;;;27.67;50.72;94510.50;5120469;28;20302;-75
2022/09/01 11:24:38;;;;;;;11.73;7.88;;;;;;;27.73;49.75;94512.69;5128010;28;20220;-75
2022/09/01 11:27:53;;;;;;;18.02;8.20;;;;;;;27.68;50.73;94512.84;5091723;28;20205;-75
2022/09/01 11:30:32;;;;;;;13.95;7.35;;;;;;;27.77;50.22;94507.38;5075361;28;20243;-75
2022/09/01 11:33:22;;;;;;;11.70;8.13;;;;;;;27.82;49.72;94504.50;5131333;28;20165;-75
2022/09/01 11:35:58;;;;;;;19.75;8.48;;;;;;;27.71;50.85;94495.19;5079644;28;20240;-75
2022/09/01 11:38:26;;;;;;;11.65;8.02;;;;;;;27.92;51.13;94495.22;5131140;28;20153;-75